createdAt,value
2023-04-10T00:00:57.674Z,55.22
2023-04-10T00:03:27.662Z,55.51
2023-04-10T00:05:57.676Z,55.43
2023-04-10T00:08:27.285Z,55.76
2023-04-10T00:10:57.285Z,56.00
2023-04-10T00:13:26.080Z,55.91
2023-04-10T00:15:54.693Z,56.21
2023-04-10T00:18:23.334Z,56.23
2023-04-10T00:20:51.911Z,56.61
2023-04-10T00:23:20.473Z,56.26
2023-04-10T00:25:49.765Z,56.73
2023-04-10T00:28:19.721Z,56.96
2023-04-10T00:30:48.321Z,56.65
2023-04-10T00:33:17.045Z,57.19
2023-04-10T00:35:45.760Z,57.22
2023-04-10T00:38:14.723Z,57.64
2023-04-10T00:40:43.371Z,57.44
2023-04-10T00:43:12.276Z,57.60
2023-04-10T00:45:42.650Z,57.53
2023-04-10T00:48:12.050Z,57.57
2023-04-10T00:50:40.880Z,57.43
2023-04-10T00:53:09.594Z,57.74
2023-04-10T00:55:38.588Z,57.82
2023-04-10T00:58:08.041Z,57.83
2023-04-10T01:00:36.716Z,58.12
2023-04-10T01:03:07.012Z,58.22
2023-04-10T01:05:43.118Z,57.97
2023-04-10T01:08:28.525Z,57.94
2023-04-10T01:11:06.502Z,57.97
2023-04-10T01:13:45.119Z,58.29
2023-04-10T01:16:27.953Z,58.48
2023-04-10T01:19:13.684Z,58.99
2023-04-10T01:21:44.022Z,59.22
2023-04-10T01:24:26.084Z,59.37
2023-04-10T01:27:13.778Z,59.93
2023-04-10T01:29:53.408Z,59.47
2023-04-10T01:32:25.553Z,60.15
2023-04-10T01:34:59.981Z,59.61
2023-04-10T01:37:33.636Z,59.80
2023-04-10T01:40:07.127Z,60.15
2023-04-10T01:42:41.989Z,60.63
2023-04-10T01:45:20.169Z,60.41
2023-04-10T01:47:51.410Z,59.94
2023-04-10T01:50:23.515Z,60.76
2023-04-10T01:52:53.034Z,60.30
2023-04-10T01:55:26.241Z,60.59
2023-04-10T01:58:04.906Z,60.43
2023-04-10T02:00:41.335Z,60.53
2023-04-10T02:03:10.649Z,60.39
2023-04-10T02:05:54.487Z,60.22
2023-04-10T02:08:36.116Z,60.87
2023-04-10T02:11:17.198Z,60.65
2023-04-10T02:13:47.331Z,61.05
2023-04-10T02:16:23.250Z,60.69
2023-04-10T02:18:54.960Z,61.61
2023-04-10T02:21:23.601Z,61.10
2023-04-10T02:23:53.033Z,61.39
2023-04-10T02:26:21.801Z,61.29
2023-04-10T02:28:50.404Z,61.72
2023-04-10T02:31:20.582Z,61.61
2023-04-10T02:33:49.910Z,62.24
2023-04-10T02:36:18.886Z,62.21
2023-04-10T02:38:47.655Z,62.58
2023-04-10T02:41:17.115Z,62.55
2023-04-10T02:43:45.952Z,63.07
2023-04-10T02:46:14.740Z,62.77
2023-04-10T02:48:45.155Z,63.19
2023-04-10T02:51:14.197Z,62.85
2023-04-10T02:53:42.935Z,63.10
2023-04-10T02:56:12.790Z,63.07
2023-04-10T02:58:45.535Z,63.12
2023-04-10T03:01:16.278Z,63.22
2023-04-10T03:03:48.553Z,63.13
2023-04-10T03:06:27.352Z,63.13
2023-04-10T03:08:57.442Z,63.31
2023-04-10T03:11:26.093Z,63.15
2023-04-10T03:13:55.107Z,63.40
2023-04-10T03:16:24.083Z,63.58
2023-04-10T03:18:54.470Z,63.62
2023-04-10T03:21:23.291Z,63.38
2023-04-10T03:23:52.636Z,63.57
2023-04-10T03:26:24.128Z,64.19
2023-04-10T03:28:53.578Z,63.90
2023-04-10T03:31:22.337Z,63.95
2023-04-10T03:33:56.321Z,63.92
2023-04-10T03:36:25.346Z,63.62
2023-04-10T03:38:55.528Z,63.46
2023-04-10T03:41:25.687Z,63.35
2023-04-10T03:43:54.766Z,64.16
2023-04-10T03:46:23.962Z,63.46
2023-04-10T03:48:54.247Z,62.80
2023-04-10T03:51:26.744Z,62.81
2023-04-10T03:53:55.977Z,63.96
2023-04-10T03:56:24.909Z,63.64
2023-04-10T03:58:53.536Z,63.95
2023-04-10T04:01:22.965Z,63.58
2023-04-10T04:04:06.117Z,63.27
2023-04-10T04:06:54.332Z,63.39
2023-04-10T04:09:49.268Z,63.81
2023-04-10T04:12:23.024Z,64.25
2023-04-10T04:15:18.125Z,63.76
2023-04-10T04:18:05.319Z,63.70
2023-04-10T04:20:39.421Z,63.99
2023-04-10T04:23:35.618Z,63.27
2023-04-10T04:26:11.629Z,63.54
2023-04-10T04:29:02.108Z,63.95
2023-04-10T04:31:54.257Z,63.80
2023-04-10T04:34:37.201Z,64.46
2023-04-10T04:37:28.322Z,63.94
2023-04-10T04:40:17.636Z,63.90
2023-04-10T04:43:01.595Z,63.17
2023-04-10T04:45:56.822Z,63.43
2023-04-10T04:48:51.640Z,63.26
2023-04-10T04:51:38.513Z,63.34
2023-04-10T04:54:27.052Z,63.26
2023-04-10T04:57:17.225Z,63.17
2023-04-10T04:59:57.676Z,62.56
2023-04-10T05:02:46.258Z,62.65
2023-04-10T05:05:50.510Z,62.47
2023-04-10T05:08:37.848Z,62.47
2023-04-10T05:11:25.054Z,62.46
2023-04-10T05:14:13.694Z,62.71
2023-04-10T05:17:02.903Z,62.44
2023-04-10T05:19:47.348Z,62.38
2023-04-10T05:22:41.150Z,61.78
2023-04-10T05:25:36.410Z,61.54
2023-04-10T05:28:30.943Z,61.68
2023-04-10T05:31:20.697Z,61.45
2023-04-10T05:33:57.739Z,61.17
2023-04-10T05:36:45.337Z,61.08
2023-04-10T05:39:25.396Z,61.04
2023-04-10T05:42:11.619Z,60.76
2023-04-10T05:44:54.158Z,61.00
2023-04-10T05:47:44.130Z,60.68
2023-04-10T05:50:42.222Z,60.08
2023-04-10T05:53:33.715Z,59.80
2023-04-10T05:56:22.697Z,59.64
2023-04-10T05:58:59.944Z,59.52
2023-04-10T06:01:48.376Z,59.59
2023-04-10T06:04:19.096Z,59.15
2023-04-10T06:06:48.349Z,59.26
2023-04-10T06:09:17.019Z,59.36
2023-04-10T06:11:45.758Z,59.64
2023-04-10T06:14:20.352Z,59.05
2023-04-10T06:16:49.176Z,59.04
2023-04-10T06:19:19.247Z,58.83
2023-04-10T06:21:47.946Z,58.95
2023-04-10T06:24:16.575Z,59.15
2023-04-10T06:26:49.418Z,58.82
2023-04-10T06:29:18.143Z,58.45
2023-04-10T06:31:46.870Z,58.45
2023-04-10T06:34:15.619Z,58.38
2023-04-10T06:36:55.528Z,58.02
2023-04-10T06:39:25.156Z,57.71
2023-04-10T06:41:54.552Z,57.50
2023-04-10T06:44:35.034Z,57.54
2023-04-10T06:47:03.940Z,57.48
2023-04-10T06:49:32.746Z,57.08
2023-04-10T06:52:02.792Z,57.02
2023-04-10T06:54:31.476Z,56.83
2023-04-10T06:57:00.056Z,56.91
2023-04-10T06:59:29.245Z,56.59
2023-04-10T07:01:57.892Z,56.62
2023-04-10T07:04:26.605Z,56.63
2023-04-10T07:06:55.194Z,56.07
2023-04-10T07:09:27.610Z,56.22
2023-04-10T07:11:56.562Z,55.73
2023-04-10T07:14:25.318Z,55.69
2023-04-10T07:16:54.160Z,55.62
2023-04-10T07:19:22.814Z,55.59
2023-04-10T07:32:03.125Z,55.11
2023-04-10T07:34:33.210Z,55.25
2023-04-10T07:37:01.737Z,55.06
2023-04-10T07:39:30.400Z,54.68
2023-04-10T07:41:58.985Z,54.71
2023-04-10T07:44:28.692Z,54.67
2023-04-10T07:46:57.288Z,54.61
2023-04-10T07:49:27.370Z,54.34
2023-04-10T07:51:55.981Z,54.36
2023-04-10T07:54:24.738Z,53.91
2023-04-10T07:56:53.997Z,54.19
2023-04-10T07:59:22.665Z,53.35
2023-04-10T08:01:51.523Z,53.99
2023-04-10T08:04:20.291Z,53.75
2023-04-10T08:06:50.686Z,53.58
2023-04-10T08:09:19.320Z,53.20
2023-04-10T08:11:48.543Z,53.19
2023-04-10T08:14:22.696Z,52.96
2023-04-10T08:16:52.900Z,52.70
2023-04-10T08:19:21.572Z,52.60
2023-04-10T08:21:51.704Z,52.74
2023-04-10T08:24:22.910Z,52.58
2023-04-10T08:26:51.580Z,52.23
2023-04-10T08:29:20.214Z,52.70
2023-04-10T08:31:49.762Z,51.97
2023-04-10T08:34:18.440Z,51.63
2023-04-10T08:36:48.641Z,51.02
2023-04-10T08:39:25.657Z,51.03
2023-04-10T08:41:57.384Z,51.41
2023-04-10T08:44:26.019Z,51.19
2023-04-10T08:46:55.786Z,51.06
2023-04-10T08:49:33.700Z,51.09
2023-04-10T08:52:08.431Z,50.72
2023-04-10T08:54:41.776Z,50.12
2023-04-10T08:57:17.725Z,50.00
2023-04-10T08:59:46.753Z,49.76
2023-04-10T09:02:15.821Z,49.48
2023-04-10T09:04:51.149Z,49.26
2023-04-10T09:07:20.107Z,49.03
2023-04-10T09:09:50.411Z,48.44
2023-04-10T09:12:19.103Z,48.02
2023-04-10T09:14:49.776Z,47.50
2023-04-10T09:17:20.891Z,47.96
2023-04-10T09:19:52.528Z,47.28
2023-04-10T09:22:32.653Z,47.40
2023-04-10T09:25:04.712Z,47.57
2023-04-10T09:27:36.145Z,46.95
2023-04-10T09:30:08.421Z,47.00
2023-04-10T09:32:40.755Z,47.64
2023-04-10T09:35:13.048Z,47.95
2023-04-10T09:37:42.794Z,47.77
2023-04-10T09:40:26.002Z,47.18
2023-04-10T09:42:56.855Z,46.02
2023-04-10T09:45:25.632Z,44.85
2023-04-10T09:48:06.158Z,44.48
2023-04-10T09:50:40.355Z,44.36
2023-04-10T09:53:10.122Z,44.51
2023-04-10T09:55:40.675Z,45.12
2023-04-10T09:58:10.578Z,44.86
2023-04-10T10:00:43.241Z,44.72
2023-04-10T10:03:15.316Z,44.82
2023-04-10T10:05:45.884Z,44.86
2023-04-10T10:08:16.660Z,43.84
2023-04-10T10:10:51.088Z,43.89
2023-04-10T10:13:30.116Z,43.30
2023-04-10T10:16:10.190Z,43.30
2023-04-10T10:18:46.901Z,42.89
2023-04-10T10:21:16.839Z,42.57
2023-04-10T10:23:54.066Z,41.51
2023-04-10T10:26:25.466Z,41.35
2023-04-10T10:28:55.010Z,41.45
2023-04-10T10:31:25.512Z,41.87
2023-04-10T10:33:55.213Z,41.42
2023-04-10T10:36:25.098Z,41.34
2023-04-10T10:39:09.798Z,40.80
2023-04-10T10:41:51.128Z,40.48
2023-04-10T10:44:33.242Z,40.32
2023-04-10T10:47:11.569Z,39.98
2023-04-10T10:49:58.346Z,40.05
2023-04-10T10:52:41.861Z,40.34
2023-04-10T10:55:31.583Z,40.98
2023-04-10T10:58:05.200Z,40.19
2023-04-10T11:01:20.400Z,40.21
2023-04-10T11:03:49.700Z,40.01
2023-04-10T11:06:20.056Z,40.11
2023-04-10T11:08:53.109Z,40.02
2023-04-10T11:11:24.342Z,40.08
2023-04-10T11:14:18.478Z,39.67
2023-04-10T11:16:49.004Z,39.71
2023-04-10T11:19:24.074Z,39.73
2023-04-10T11:22:08.086Z,39.99
2023-04-10T11:25:02.567Z,39.93
2023-04-10T11:27:45.039Z,39.83
2023-04-10T11:30:36.217Z,39.14
2023-04-10T11:33:06.766Z,39.29
2023-04-10T11:35:35.846Z,39.56
2023-04-10T11:38:25.504Z,38.78
2023-04-10T11:41:07.024Z,38.97
2023-04-10T11:43:35.966Z,38.75
2023-04-10T11:46:08.740Z,38.81
2023-04-10T11:48:38.474Z,38.97
2023-04-10T11:51:13.381Z,38.90
2023-04-10T11:53:43.299Z,38.72
2023-04-10T11:56:22.588Z,37.91
2023-04-10T11:58:55.136Z,38.37
2023-04-10T12:01:26.246Z,38.11
2023-04-10T12:03:57.843Z,38.29
2023-04-10T12:06:32.086Z,38.12
2023-04-10T12:09:03.135Z,38.39
2023-04-10T12:11:32.277Z,38.66
2023-04-10T12:14:03.424Z,38.50
2023-04-10T12:16:34.726Z,38.16
2023-04-10T12:19:04.032Z,37.25
2023-04-10T12:21:33.104Z,37.85
2023-04-10T12:24:01.808Z,38.41
2023-04-10T12:26:30.806Z,38.37
2023-04-10T12:29:00.074Z,38.37
2023-04-10T12:31:29.864Z,38.27
2023-04-10T12:34:01.296Z,38.35
2023-04-10T12:36:32.323Z,38.21
2023-04-10T12:39:02.408Z,37.93
2023-04-10T12:41:34.310Z,38.32
2023-04-10T12:44:11.951Z,38.21
2023-04-10T12:46:43.099Z,38.24
2023-04-10T12:49:16.086Z,37.91
2023-04-10T12:51:47.315Z,38.05
2023-04-10T12:54:33.639Z,37.50
2023-04-10T12:57:03.974Z,37.64
2023-04-10T12:59:32.904Z,37.51
2023-04-10T13:02:01.689Z,37.49
2023-04-10T13:04:33.309Z,37.18
2023-04-10T13:07:02.006Z,36.45
2023-04-10T13:09:30.644Z,37.17
2023-04-10T13:11:59.345Z,37.20
2023-04-10T13:14:27.966Z,37.17
2023-04-10T13:16:56.625Z,36.58
2023-04-10T13:19:25.288Z,36.88
2023-04-10T13:21:55.294Z,36.77
2023-04-10T13:24:23.944Z,36.27
2023-04-10T13:26:52.518Z,36.28
2023-04-10T13:29:21.404Z,36.35
2023-04-10T13:31:50.342Z,36.09
2023-04-10T13:34:19.006Z,36.71
2023-04-10T13:36:48.637Z,36.60
2023-04-10T13:39:19.092Z,36.90
2023-04-10T13:41:47.750Z,36.54
2023-04-10T13:44:16.658Z,36.50
2023-04-10T13:46:45.360Z,36.60
2023-04-10T13:49:17.114Z,36.75
2023-04-10T13:51:46.734Z,36.74
2023-04-10T13:54:17.098Z,36.28
2023-04-10T13:56:48.079Z,36.24
2023-04-10T13:59:16.811Z,36.66
2023-04-10T14:01:45.559Z,36.85
2023-04-10T14:04:14.776Z,37.28
2023-04-10T14:06:43.602Z,36.96
2023-04-10T14:09:12.392Z,37.03
2023-04-10T14:11:40.974Z,36.75
2023-04-10T14:14:11.395Z,36.84
2023-04-10T14:16:40.100Z,36.97
2023-04-10T14:19:08.776Z,36.96
2023-04-10T14:21:37.605Z,36.93
2023-04-10T14:24:06.290Z,37.36
2023-04-10T14:26:34.976Z,37.63
2023-04-10T14:29:03.739Z,37.55
2023-04-10T14:31:35.744Z,37.34
2023-04-10T14:34:07.816Z,37.21
2023-04-10T14:36:36.487Z,37.40
2023-04-10T14:39:05.232Z,37.35
2023-04-10T14:41:33.774Z,37.10
2023-04-10T14:44:03.423Z,37.39
2023-04-10T14:46:33.487Z,37.32
2023-04-10T14:49:02.189Z,37.48
2023-04-10T14:51:30.998Z,36.92
2023-04-10T14:53:59.641Z,37.87
2023-04-10T14:56:28.340Z,39.77
2023-04-10T14:58:57.031Z,40.81
2023-04-10T15:01:25.695Z,41.69
2023-04-10T15:03:55.961Z,42.14
2023-04-10T15:06:25.209Z,40.99
2023-04-10T15:08:53.915Z,41.78
2023-04-10T15:11:22.750Z,42.53
2023-04-10T15:13:51.485Z,42.74
2023-04-10T15:16:22.648Z,42.86
2023-04-10T15:18:53.827Z,42.42
2023-04-10T15:21:31.636Z,42.38
2023-04-10T15:24:10.744Z,41.44
2023-04-10T15:26:46.258Z,41.02
2023-04-10T15:29:15.499Z,41.19
2023-04-10T15:31:44.079Z,41.51
2023-04-10T15:34:12.740Z,41.58
2023-04-10T15:36:42.737Z,42.20
2023-04-10T15:39:11.928Z,42.21
2023-04-10T15:41:40.616Z,42.20
2023-04-10T15:44:09.328Z,41.99
2023-04-10T15:46:38.051Z,41.85
2023-04-10T15:49:06.697Z,41.76
2023-04-10T15:51:35.337Z,41.73
2023-04-10T15:54:05.794Z,41.40
2023-04-10T15:56:34.709Z,41.42
2023-04-10T15:59:03.369Z,41.68
2023-04-10T16:01:32.057Z,41.66
2023-04-10T16:04:00.814Z,41.56
2023-04-10T16:06:29.533Z,41.25
2023-04-10T16:08:58.112Z,40.84
2023-04-10T16:11:28.191Z,41.04
2023-04-10T16:13:56.946Z,41.14
2023-04-10T16:16:25.868Z,40.91
2023-04-10T16:18:55.020Z,41.36
2023-04-10T16:21:23.695Z,41.28
2023-04-10T16:23:52.804Z,41.90
2023-04-10T16:26:21.623Z,41.83
2023-04-10T16:28:51.766Z,41.56
2023-04-10T16:31:20.506Z,40.75
2023-04-10T16:33:49.325Z,41.11
2023-04-10T16:36:18.062Z,41.19
2023-04-10T16:38:49.856Z,41.21
2023-04-10T16:41:20.893Z,41.22
2023-04-10T16:43:51.433Z,41.45
2023-04-10T16:46:20.172Z,41.41
2023-04-10T16:48:48.988Z,41.43
2023-04-10T16:51:19.074Z,41.74
2023-04-10T16:53:48.020Z,42.46
2023-04-10T16:56:16.820Z,42.69
2023-04-10T16:58:45.554Z,42.73
2023-04-10T17:01:18.139Z,43.20
2023-04-10T17:03:47.604Z,43.45
2023-04-10T17:06:16.821Z,44.19
2023-04-10T17:08:45.860Z,44.55
2023-04-10T17:11:14.797Z,44.27
2023-04-10T17:13:43.830Z,44.44
2023-04-10T17:16:12.515Z,44.60
2023-04-10T17:18:43.214Z,45.26
2023-04-10T17:21:13.231Z,44.70
2023-04-10T17:23:42.485Z,45.10
2023-04-10T17:26:15.513Z,45.02
2023-04-10T17:28:46.667Z,45.29
2023-04-10T17:31:16.475Z,45.47
2023-04-10T17:33:46.620Z,45.85
2023-04-10T17:36:15.761Z,45.92
2023-04-10T17:38:44.795Z,46.12
2023-04-10T17:41:17.140Z,46.55
2023-04-10T17:43:45.688Z,46.62
2023-04-10T17:46:15.835Z,46.60
2023-04-10T17:48:46.799Z,46.85
2023-04-10T17:51:15.628Z,47.18
2023-04-10T17:53:45.076Z,47.38
2023-04-10T17:56:20.870Z,47.51
2023-04-10T17:58:49.620Z,48.03
2023-04-10T18:01:29.675Z,48.10
2023-04-10T18:04:00.426Z,48.46
2023-04-10T18:06:29.350Z,48.89
2023-04-10T18:08:58.182Z,48.96
2023-04-10T18:11:27.361Z,48.96
2023-04-10T18:13:56.037Z,49.41
2023-04-10T18:16:24.648Z,49.46
2023-04-10T18:18:54.116Z,49.60
2023-04-10T18:21:24.305Z,49.86
2023-04-10T18:23:53.054Z,49.83
2023-04-10T18:26:21.713Z,50.20
2023-04-10T18:28:50.430Z,50.31
2023-04-10T18:31:19.427Z,50.09
2023-04-10T18:33:56.168Z,50.63
2023-04-10T18:36:30.150Z,50.55
2023-04-10T18:38:58.857Z,50.99
2023-04-10T18:41:28.745Z,50.70
2023-04-10T18:44:04.976Z,50.43
2023-04-10T18:46:36.548Z,51.14
2023-04-10T18:49:06.609Z,50.84
2023-04-10T18:51:40.351Z,50.94
2023-04-10T18:54:09.607Z,51.15
2023-04-10T18:56:38.522Z,50.79
2023-04-10T18:59:07.315Z,50.88
2023-04-10T19:01:36.224Z,51.45
2023-04-10T19:04:05.228Z,51.62
2023-04-10T19:06:35.228Z,52.02
2023-04-10T19:09:05.428Z,51.98
2023-04-10T19:11:34.333Z,52.11
2023-04-10T19:14:03.040Z,52.20
2023-04-10T19:19:02.604Z,51.67
2023-04-10T19:21:31.682Z,51.73
2023-04-10T19:24:00.619Z,51.42
2023-04-10T19:26:30.765Z,51.87
2023-04-10T19:29:00.949Z,51.96
2023-04-10T19:31:30.918Z,51.92
2023-04-10T19:34:02.496Z,52.23
2023-04-10T19:36:31.466Z,52.42
2023-04-10T19:39:00.180Z,52.38
2023-04-10T19:41:30.191Z,52.26
2023-04-10T19:43:59.393Z,52.54
2023-04-10T19:46:28.329Z,53.16
2023-04-10T19:48:57.096Z,53.03
2023-04-10T19:51:25.773Z,53.20
2023-04-10T19:53:55.873Z,53.80
2023-04-10T19:56:26.687Z,54.26
2023-04-10T19:58:57.752Z,54.07
2023-04-10T20:01:26.802Z,54.05
2023-04-10T20:03:55.640Z,54.41
2023-04-10T20:06:24.697Z,54.52
2023-04-10T20:08:53.693Z,55.16
2023-04-10T20:11:22.940Z,55.22
2023-04-10T20:13:53.002Z,54.88
2023-04-10T20:16:24.294Z,55.03
2023-04-10T20:18:55.441Z,55.00
2023-04-10T20:21:24.187Z,54.97
2023-04-10T20:23:52.796Z,54.81
2023-04-10T20:26:21.468Z,55.21
2023-04-10T20:28:50.086Z,54.98
2023-04-10T20:31:18.797Z,54.98
2023-04-10T20:33:49.131Z,54.73
2023-04-10T20:36:17.918Z,55.22
2023-04-10T20:38:46.619Z,54.94
2023-04-10T20:41:15.251Z,54.85
2023-04-10T20:43:43.871Z,54.78
2023-04-10T20:46:12.479Z,54.71
2023-04-10T20:48:41.291Z,54.37
2023-04-10T20:51:11.531Z,54.09
2023-04-10T20:53:40.156Z,54.30
2023-04-10T20:56:09.448Z,54.14
2023-04-10T20:58:38.239Z,54.18
2023-04-10T21:01:09.762Z,54.17
2023-04-10T21:03:47.307Z,54.09
2023-04-10T21:06:18.259Z,54.20
2023-04-10T21:08:47.922Z,54.05
2023-04-10T21:11:16.472Z,54.08
2023-04-10T21:13:45.050Z,54.11
2023-04-10T21:16:13.750Z,53.98
2023-04-10T21:18:42.412Z,53.93
2023-04-10T21:21:11.167Z,54.18
2023-04-10T21:23:41.124Z,54.21
2023-04-10T21:26:10.234Z,54.42
2023-04-10T21:28:39.038Z,54.08
2023-04-10T21:31:08.182Z,53.78
2023-04-10T21:33:36.734Z,54.05
2023-04-10T21:36:06.519Z,54.37
2023-04-10T21:38:35.431Z,54.15
2023-04-10T21:41:05.598Z,54.33
2023-04-10T21:43:35.610Z,54.41
2023-04-10T21:46:04.266Z,54.22
2023-04-10T21:48:32.999Z,54.33
2023-04-10T21:51:03.514Z,54.67
2023-04-10T21:53:32.161Z,54.37
2023-04-10T21:56:00.723Z,54.80
2023-04-10T21:58:32.299Z,54.51
2023-04-10T22:01:01.733Z,54.74
2023-04-10T22:03:30.575Z,54.75
2023-04-10T22:05:59.279Z,54.52
2023-04-10T22:08:27.884Z,54.76
2023-04-10T22:10:56.594Z,55.18
2023-04-10T22:13:30.727Z,54.63
2023-04-10T22:16:03.013Z,54.77
2023-04-10T22:18:31.862Z,54.74
2023-04-10T22:21:00.487Z,55.10
2023-04-10T22:23:29.171Z,55.43
2023-04-10T22:26:00.268Z,55.47
2023-04-10T22:28:29.351Z,55.25
2023-04-10T22:31:01.027Z,55.58
2023-04-10T22:33:33.946Z,56.42
2023-04-10T22:36:05.759Z,56.68
2023-04-10T22:38:37.999Z,56.10
2023-04-10T22:41:07.974Z,56.10
2023-04-10T22:43:36.913Z,55.81
2023-04-10T22:46:07.304Z,56.70
2023-04-10T22:48:36.005Z,56.49
2023-04-10T22:51:04.719Z,56.53
2023-04-10T22:53:39.385Z,56.42
2023-04-10T22:56:14.048Z,56.36
2023-04-10T22:58:43.953Z,56.78
2023-04-10T23:01:24.235Z,57.46
2023-04-10T23:03:55.044Z,57.48
2023-04-10T23:06:28.395Z,57.11
2023-04-10T23:08:58.869Z,58.24
2023-04-10T23:11:31.093Z,57.90
2023-04-10T23:14:06.453Z,57.92
2023-04-10T23:16:41.227Z,57.75
2023-04-10T23:19:10.336Z,58.67
2023-04-10T23:21:40.628Z,58.27
2023-04-10T23:24:12.431Z,58.79
2023-04-10T23:26:43.930Z,59.03
2023-04-10T23:29:15.322Z,59.20
2023-04-10T23:31:48.866Z,58.63
2023-04-10T23:34:23.507Z,58.94
2023-04-10T23:36:53.381Z,59.16
2023-04-10T23:39:22.030Z,59.71
2023-04-10T23:41:50.610Z,59.54
2023-04-10T23:44:19.245Z,59.56
2023-04-10T23:46:49.498Z,59.36
2023-04-10T23:49:27.146Z,60.06
2023-04-10T23:52:04.368Z,60.08
2023-04-10T23:54:37.458Z,60.67
2023-04-10T23:57:27.591Z,61.18
2023-04-10T23:59:56.349Z,61.24
